Time;durP1;ratioP1;P1;durP2;ratioP2;P2;SDS_P1;SDS_P2;PMS_P1;PMS_P2;Temp;Humidity;BMP_temperature;BMP_pressure;BME280_temperature;BME280_humidity;BME280_pressure;Samples;Min_cycle;Max_cycle;Signal;HPM_P1;HPM_P2
2021/11/30 00:02:02;;;;;;;21.20;13.47;;;1.50;99.90;;;;;;5115947;28;20221;-78
2021/11/30 00:04:29;;;;;;;22.07;13.40;;;1.50;99.90;;;;;;5115337;28;20207;-79
2021/11/30 00:06:58;;;;;;;23.57;13.80;;;1.40;99.90;;;;;;5115541;28;20202;-78
2021/11/30 00:12:15;;;;;;;21.00;12.80;;;1.50;99.90;;;;;;5114866;27;20224;-78
2021/11/30 00:14:43;;;;;;;18.57;12.20;;;1.50;99.90;;;;;;5114778;28;20293;-78
2021/11/30 00:17:11;;;;;;;18.23;11.77;;;1.40;99.90;;;;;;5114519;28;20243;-78
2021/11/30 00:19:39;;;;;;;16.13;11.20;;;1.60;99.90;;;;;;5115495;27;20261;-78
2021/11/30 00:22:07;;;;;;;19.07;12.13;;;1.50;99.90;;;;;;5114443;28;20664;-78
2021/11/30 00:24:34;;;;;;;17.60;11.97;;;1.60;99.90;;;;;;5106166;28;20225;-78
2021/11/30 00:27:02;;;;;;;18.17;11.03;;;1.40;99.90;;;;;;5114716;28;20286;-79
2021/11/30 00:29:30;;;;;;;16.87;10.60;;;1.40;99.90;;;;;;5115312;28;20270;-78
2021/11/30 00:31:57;;;;;;;19.60;11.30;;;1.50;99.90;;;;;;5115026;28;20276;-78
2021/11/30 00:34:24;;;;;;;17.67;11.27;;;1.50;99.90;;;;;;5126630;27;20228;-79
2021/11/30 00:36:51;;;;;;;17.93;10.70;;;1.40;99.90;;;;;;5123129;27;20237;-78
2021/11/30 00:39:19;;;;;;;16.90;10.53;;;1.50;99.90;;;;;;5113874;28;20230;-78
2021/11/30 00:41:49;;;;;;;16.70;10.77;;;1.40;99.90;;;;;;5115112;28;20281;-78
2021/11/30 00:44:19;;;;;;;14.30;9.97;;;1.60;99.90;;;;;;5114745;28;20276;-78
2021/11/30 00:46:50;;;;;;;16.47;10.67;;;1.60;99.90;;;;;;5114149;28;20204;-78
2021/11/30 00:49:17;;;;;;;19.07;10.70;;;1.60;99.90;;;;;;5114617;28;20563;-78
2021/11/30 00:51:45;;;;;;;17.47;10.03;;;1.60;99.90;;;;;;5115001;28;20225;-78
2021/11/30 00:54:15;;;;;;;15.90;10.10;;;1.60;99.90;;;;;;5114827;28;20328;-79
2021/11/30 00:56:45;;;;;;;15.30;10.93;;;1.70;99.90;;;;;;5093507;28;20234;-78
2021/11/30 00:59:12;;;;;;;15.50;10.50;;;1.90;99.90;;;;;;5116702;27;20236;-78
2021/11/30 01:01:40;;;;;;;15.63;10.37;;;1.70;99.90;;;;;;5114697;27;20238;-78
2021/11/30 01:04:10;;;;;;;18.03;10.87;;;1.80;99.90;;;;;;5115182;27;20255;-78
2021/11/30 01:06:38;;;;;;;13.53;9.73;;;2.00;99.90;;;;;;5106699;27;20225;-78
2021/11/30 01:09:05;;;;;;;18.13;10.40;;;2.10;99.90;;;;;;5115321;27;20236;-78
2021/11/30 01:11:32;;;;;;;15.83;10.40;;;2.10;99.90;;;;;;5097147;28;20284;-78
2021/11/30 01:14:00;;;;;;;16.57;10.40;;;2.20;99.90;;;;;;5096317;28;20219;-78
2021/11/30 01:16:26;;;;;;;14.93;10.57;;;2.40;99.90;;;;;;5114638;27;20625;-78
2021/11/30 01:18:53;;;;;;;14.23;10.47;;;2.20;99.90;;;;;;5114757;28;20237;-78
2021/11/30 01:21:22;;;;;;;15.60;10.13;;;2.30;99.90;;;;;;5114280;28;20332;-79
2021/11/30 01:23:49;;;;;;;17.50;9.67;;;2.60;99.90;;;;;;5097957;28;20186;-78
2021/11/30 01:26:16;;;;;;;16.30;9.83;;;2.60;99.90;;;;;;5114522;27;20299;-78
2021/11/30 01:28:43;;;;;;;16.03;10.80;;;2.70;99.90;;;;;;5113361;28;20716;-78
2021/11/30 01:31:10;;;;;;;14.93;10.00;;;3.00;99.90;;;;;;5114171;28;20628;-78
2021/11/30 01:33:37;;;;;;;14.80;9.70;;;2.90;99.90;;;;;;5113528;28;20247;-78
2021/11/30 01:36:05;;;;;;;13.70;9.67;;;2.80;99.90;;;;;;5093340;28;20234;-78
2021/11/30 01:38:35;;;;;;;12.33;9.77;;;3.10;99.90;;;;;;5124723;27;20293;-77
2021/11/30 01:41:05;;;;;;;13.63;9.57;;;3.10;99.90;;;;;;5113589;28;20197;-78
2021/11/30 01:43:40;;;;;;;13.60;9.73;;;3.00;99.90;;;;;;5123944;27;20568;-79
2021/11/30 01:46:11;;;;;;;15.13;10.67;;;2.90;99.90;;;;;;5114046;28;20198;-78
2021/11/30 01:51:24;;;;;;;14.33;10.43;;;3.00;99.90;;;;;;5113393;28;20202;-78
2021/11/30 01:53:53;;;;;;;16.20;10.63;;;3.10;99.90;;;;;;5113761;28;20312;-79
2021/11/30 01:56:20;;;;;;;14.43;10.23;;;3.20;99.90;;;;;;5113991;28;20284;-78
2021/11/30 01:58:48;;;;;;;15.23;10.90;;;3.20;99.90;;;;;;5113500;28;20290;-79
2021/11/30 02:01:16;;;;;;;17.73;10.63;;;3.10;99.90;;;;;;5113742;28;20205;-78
2021/11/30 02:03:43;;;;;;;15.30;11.30;;;2.90;99.90;;;;;;5113427;28;20200;-78
2021/11/30 02:06:10;;;;;;;16.40;11.57;;;3.10;99.90;;;;;;5112884;28;20739;-78
2021/11/30 02:08:37;;;;;;;18.97;13.13;;;2.90;99.90;;;;;;5112885;28;20290;-78
2021/11/30 02:11:05;;;;;;;19.30;13.23;;;3.00;99.90;;;;;;5113116;27;20236;-79
2021/11/30 02:13:33;;;;;;;18.20;13.80;;;3.00;99.90;;;;;;5112860;28;20244;-78
2021/11/30 02:16:02;;;;;;;20.10;13.47;;;3.10;99.90;;;;;;5122631;27;20730;-78
2021/11/30 02:18:29;;;;;;;21.60;14.00;;;3.20;99.90;;;;;;5113071;27;20239;-79
2021/11/30 02:21:01;;;;;;;21.40;13.60;;;3.20;99.90;;;;;;5111885;28;20786;-78
2021/11/30 02:23:35;;;;;;;20.33;14.03;;;3.30;99.90;;;;;;5128100;27;20194;-78
2021/11/30 02:26:06;;;;;;;20.03;12.60;;;3.30;99.90;;;;;;5113221;28;20205;-78
2021/11/30 02:28:33;;;;;;;19.13;13.30;;;3.50;99.90;;;;;;5113238;27;20298;-77
2021/11/30 02:31:00;;;;;;;20.07;12.67;;;3.40;99.90;;;;;;5119797;27;20227;-79
2021/11/30 02:33:27;;;;;;;18.40;13.40;;;3.50;99.90;;;;;;5112228;28;20303;-78
2021/11/30 02:35:54;;;;;;;18.60;13.50;;;3.50;99.90;;;;;;5116206;27;20275;-78
2021/11/30 02:38:23;;;;;;;17.30;13.33;;;3.60;99.90;;;;;;5122267;27;20228;-77
2021/11/30 02:40:50;;;;;;;20.90;14.57;;;3.50;99.90;;;;;;5113081;28;20204;-78
2021/11/30 02:43:17;;;;;;;19.60;14.20;;;3.50;99.90;;;;;;5112677;28;20239;-78
2021/11/30 02:45:44;;;;;;;18.47;13.90;;;3.60;99.90;;;;;;5112801;28;20197;-78
2021/11/30 02:48:11;;;;;;;21.53;13.60;;;3.50;99.90;;;;;;5111988;28;20285;-78
2021/11/30 02:50:42;;;;;;;19.70;14.20;;;3.50;99.90;;;;;;5112010;28;20215;-78
2021/11/30 02:53:15;;;;;;;19.60;14.67;;;3.50;99.90;;;;;;5112641;28;20214;-78
2021/11/30 02:55:44;;;;;;;21.73;14.83;;;3.70;99.90;;;;;;5112772;27;20307;-78
2021/11/30 02:58:11;;;;;;;20.37;14.23;;;3.50;99.90;;;;;;5111530;28;20201;-78
2021/11/30 03:00:38;;;;;;;19.77;14.70;;;3.50;99.90;;;;;;5112221;28;20328;-78
2021/11/30 03:03:06;;;;;;;19.40;13.73;;;3.60;99.90;;;;;;5111658;28;20239;-78
2021/11/30 03:05:33;;;;;;;20.17;14.37;;;3.40;99.90;;;;;;5112033;28;20197;-79
2021/11/30 03:08:00;;;;;;;21.63;14.70;;;3.50;99.90;;;;;;5111943;28;20279;-78
2021/11/30 03:10:28;;;;;;;21.83;15.00;;;3.40;99.90;;;;;;5115707;27;20287;-78
2021/11/30 03:12:56;;;;;;;22.47;15.23;;;3.50;99.90;;;;;;5112152;28;20624;-78
2021/11/30 03:15:25;;;;;;;22.23;15.40;;;3.70;99.90;;;;;;5111516;28;20312;-78
2021/11/30 03:17:54;;;;;;;23.37;16.10;;;3.70;99.90;;;;;;5111220;28;20734;-78
2021/11/30 03:20:21;;;;;;;23.27;16.53;;;3.70;99.90;;;;;;5108884;28;20260;-78
2021/11/30 03:22:49;;;;;;;25.27;16.63;;;3.60;99.90;;;;;;5111798;28;20293;-78
2021/11/30 03:25:17;;;;;;;24.43;16.97;;;3.60;99.90;;;;;;5111836;28;20235;-78
2021/11/30 03:27:45;;;;;;;27.93;18.17;;;3.80;99.90;;;;;;5110780;28;20305;-78
2021/11/30 03:30:14;;;;;;;25.57;16.97;;;3.80;99.90;;;;;;5112354;28;20211;-78
2021/11/30 03:35:26;;;;;;;26.57;18.10;;;3.70;99.90;;;;;;5111165;28;20208;-78
2021/11/30 03:37:53;;;;;;;27.67;18.90;;;3.80;99.90;;;;;;5112035;28;20233;-78
2021/11/30 03:40:20;;;;;;;28.50;19.53;;;3.90;99.90;;;;;;5111853;28;20288;-78
2021/11/30 03:42:47;;;;;;;27.33;18.93;;;3.90;99.90;;;;;;5111903;28;20250;-78
2021/11/30 03:45:16;;;;;;;27.83;19.33;;;3.90;99.90;;;;;;5111281;28;20284;-79
2021/11/30 03:47:44;;;;;;;28.13;19.07;;;4.00;99.90;;;;;;5112483;28;20394;-78
2021/11/30 03:50:11;;;;;;;27.40;19.13;;;3.90;99.90;;;;;;5114079;28;20284;-78
2021/11/30 03:52:39;;;;;;;26.83;18.93;;;3.80;99.90;;;;;;5118011;28;20203;-78
2021/11/30 03:55:08;;;;;;;29.63;20.17;;;3.90;99.90;;;;;;5110396;28;20252;-78
2021/11/30 03:57:35;;;;;;;27.17;18.33;;;3.90;99.90;;;;;;5124139;28;20280;-78
2021/11/30 04:00:05;;;;;;;26.07;18.20;;;3.90;99.90;;;;;;5112466;28;20293;-78
2021/11/30 04:02:34;;;;;;;27.50;18.27;;;4.10;99.90;;;;;;5118125;28;20201;-78
2021/11/30 04:05:01;;;;;;;26.93;18.30;;;4.00;99.90;;;;;;5111724;28;20280;-78
2021/11/30 04:07:28;;;;;;;28.37;18.60;;;4.10;99.90;;;;;;5111163;28;20759;-78
2021/11/30 04:09:55;;;;;;;29.10;19.23;;;4.10;99.90;;;;;;5121466;28;20984;-78
2021/11/30 04:12:22;;;;;;;27.87;19.27;;;4.10;99.90;;;;;;5111100;28;20303;-77
2021/11/30 04:14:48;;;;;;;27.60;18.40;;;4.00;99.90;;;;;;5111852;28;20312;-78
2021/11/30 04:17:15;;;;;;;28.77;19.50;;;4.20;99.90;;;;;;5110893;28;20231;-78
2021/11/30 04:19:44;;;;;;;27.80;19.00;;;4.00;99.90;;;;;;5111984;28;20615;-78
2021/11/30 04:22:11;;;;;;;29.10;19.47;;;4.20;99.90;;;;;;5111808;28;20285;-78
2021/11/30 04:24:38;;;;;;;29.73;19.40;;;4.00;99.90;;;;;;5111936;28;20237;-78
2021/11/30 04:27:05;;;;;;;27.90;18.60;;;4.00;99.90;;;;;;5122685;28;20208;-77
2021/11/30 04:29:32;;;;;;;26.80;18.73;;;4.00;99.90;;;;;;5115925;28;20228;-78
2021/11/30 04:31:59;;;;;;;27.73;19.20;;;4.10;99.90;;;;;;5111770;28;20213;-78
2021/11/30 04:34:26;;;;;;;26.57;18.87;;;4.10;99.90;;;;;;5114748;28;20732;-79
2021/11/30 04:36:55;;;;;;;28.00;18.70;;;4.30;99.90;;;;;;5115559;27;20225;-78
2021/11/30 04:39:22;;;;;;;25.10;18.73;;;4.30;99.90;;;;;;5114601;27;20205;-78
2021/11/30 04:41:49;;;;;;;26.47;18.30;;;4.20;99.90;;;;;;5115269;28;20287;-78
2021/11/30 04:44:17;;;;;;;26.17;18.10;;;4.20;99.90;;;;;;5114737;28;20190;-78
2021/11/30 04:46:52;;;;;;;25.57;16.80;;;4.20;99.90;;;;;;5114730;28;20225;-78
2021/11/30 04:49:35;;;;;;;23.17;16.70;;;4.30;99.90;;;;;;5115189;27;20193;-78
2021/11/30 04:52:05;;;;;;;25.03;16.67;;;4.20;99.90;;;;;;5115175;28;20209;-78
2021/11/30 04:54:32;;;;;;;22.57;16.20;;;4.40;99.90;;;;;;5114453;28;20218;-78
2021/11/30 04:56:59;;;;;;;22.73;16.27;;;4.40;99.90;;;;;;5120290;27;20292;-78
2021/11/30 04:59:26;;;;;;;22.77;16.50;;;4.30;99.90;;;;;;5113492;28;20741;-78
2021/11/30 05:01:54;;;;;;;21.43;15.73;;;4.40;99.90;;;;;;5115164;28;20228;-78
2021/11/30 05:04:21;;;;;;;21.33;15.63;;;4.40;99.90;;;;;;5114838;27;20289;-78
2021/11/30 05:06:48;;;;;;;21.77;15.80;;;4.40;99.90;;;;;;5114295;28;20235;-78
2021/11/30 05:09:16;;;;;;;22.10;15.27;;;4.50;99.90;;;;;;5114713;28;20284;-78
2021/11/30 05:11:43;;;;;;;20.40;15.60;;;4.60;99.90;;;;;;5114556;28;20225;-78
2021/11/30 05:14:10;;;;;;;20.10;14.83;;;4.40;99.90;;;;;;5113602;28;20305;-78
2021/11/30 05:16:39;;;;;;;20.40;15.40;;;4.40;99.90;;;;;;5114285;28;20293;-78
2021/11/30 05:19:06;;;;;;;19.70;14.57;;;4.70;99.90;;;;;;5114382;27;20202;-78
2021/11/30 05:21:34;;;;;;;20.17;14.40;;;4.50;99.90;;;;;;5114426;28;20737;-78
2021/11/30 05:24:03;;;;;;;19.77;14.87;;;4.70;99.90;;;;;;5114348;28;20292;-78
2021/11/30 05:26:32;;;;;;;20.67;15.20;;;4.60;99.90;;;;;;5123687;27;20266;-78
2021/11/30 05:28:59;;;;;;;19.27;14.97;;;4.70;99.90;;;;;;5116591;27;20591;-78
2021/11/30 05:31:29;;;;;;;21.27;14.90;;;4.60;99.90;;;;;;5114462;28;20391;-78
2021/11/30 05:33:56;;;;;;;20.60;15.03;;;4.60;99.90;;;;;;5106246;28;20301;-79
2021/11/30 05:36:23;;;;;;;18.67;14.33;;;4.80;99.90;;;;;;5120301;27;20233;-78
2021/11/30 05:38:50;;;;;;;18.90;14.93;;;4.60;99.90;;;;;;5113804;28;20620;-78
2021/11/30 05:41:17;;;;;;;18.37;14.50;;;4.60;99.90;;;;;;5114972;27;20908;-78
2021/11/30 05:43:45;;;;;;;19.13;14.47;;;4.80;99.90;;;;;;5114298;27;20284;-78
2021/11/30 05:46:12;;;;;;;18.73;14.30;;;4.60;99.90;;;;;;5125945;27;20282;-78
2021/11/30 05:48:39;;;;;;;18.77;13.93;;;4.70;99.90;;;;;;5113954;28;20284;-78
2021/11/30 05:51:06;;;;;;;19.63;14.43;;;4.80;99.90;;;;;;5118529;27;20288;-78
2021/11/30 05:53:33;;;;;;;18.50;13.93;;;4.70;99.90;;;;;;5113242;27;20292;-78
2021/11/30 05:56:04;;;;;;;19.87;13.80;;;4.70;99.90;;;;;;5113664;28;20222;-78
2021/11/30 05:58:35;;;;;;;20.43;14.10;;;4.90;99.90;;;;;;5113911;28;20201;-78
2021/11/30 06:01:09;;;;;;;18.10;13.77;;;4.70;99.90;;;;;;5113773;28;20197;-78
2021/11/30 06:03:55;;;;;;;19.37;13.47;;;4.80;99.90;;;;;;5113998;28;20189;-77
2021/11/30 06:06:23;;;;;;;17.77;13.93;;;4.80;99.90;;;;;;5098869;28;20193;-77
2021/11/30 06:08:50;;;;;;;19.13;13.63;;;4.80;99.90;;;;;;5118033;27;20297;-76
2021/11/30 06:11:17;;;;;;;19.83;14.50;;;4.90;99.90;;;;;;5112375;27;20222;-76
2021/11/30 06:13:44;;;;;;;17.33;13.80;;;4.90;99.90;;;;;;5113618;28;20280;-76
2021/11/30 06:16:13;;;;;;;18.83;13.80;;;4.80;99.90;;;;;;5114036;27;20284;-76
2021/11/30 06:18:40;;;;;;;19.77;13.70;;;5.00;99.90;;;;;;5113591;28;20280;-77
2021/11/30 06:21:07;;;;;;;17.47;13.37;;;4.90;99.90;;;;;;5113024;28;20234;-78
2021/11/30 06:23:34;;;;;;;19.77;13.50;;;5.00;99.90;;;;;;5113727;28;20202;-76
2021/11/30 06:26:01;;;;;;;18.10;13.67;;;4.90;99.90;;;;;;5112042;28;20236;-76
2021/11/30 06:28:28;;;;;;;17.10;13.27;;;4.80;99.90;;;;;;5113070;28;20276;-76
2021/11/30 06:30:55;;;;;;;17.33;13.07;;;4.90;99.90;;;;;;5113140;28;20227;-77
2021/11/30 06:33:24;;;;;;;18.23;13.27;;;5.00;99.90;;;;;;5113136;28;20229;-77
2021/11/30 06:35:50;;;;;;;16.60;13.67;;;5.10;99.90;;;;;;5112072;28;20300;-76
2021/11/30 06:38:17;;;;;;;17.43;12.80;;;5.20;99.90;;;;;;5113171;27;20285;-77
2021/11/30 06:40:44;;;;;;;18.30;13.73;;;5.00;99.90;;;;;;5111519;27;20276;-76
2021/11/30 06:43:11;;;;;;;17.10;13.23;;;5.00;99.90;;;;;;5112619;28;20293;-76
2021/11/30 06:45:38;;;;;;;16.93;13.40;;;5.20;99.90;;;;;;5111821;28;20239;-76
2021/11/30 06:48:06;;;;;;;17.60;13.50;;;5.00;99.90;;;;;;5113215;28;20225;-76
2021/11/30 06:50:34;;;;;;;18.97;13.63;;;5.10;99.90;;;;;;5125199;27;20691;-76
2021/11/30 06:53:01;;;;;;;16.80;13.57;;;5.10;99.90;;;;;;5114251;27;20284;-76
2021/11/30 06:55:28;;;;;;;17.83;13.27;;;5.10;99.90;;;;;;5111514;28;20250;-77
2021/11/30 06:57:55;;;;;;;16.93;13.10;;;5.10;99.90;;;;;;5112654;28;20289;-76
2021/11/30 07:00:23;;;;;;;16.73;13.13;;;5.10;99.90;;;;;;5112331;27;20609;-77
2021/11/30 07:02:51;;;;;;;17.07;13.47;;;5.20;99.90;;;;;;5112977;28;20193;-77
2021/11/30 07:05:20;;;;;;;14.90;12.33;;;5.10;99.90;;;;;;5102655;28;21618;-77
2021/11/30 07:08:00;;;;;;;15.37;12.13;;;5.10;99.90;;;;;;5110732;28;20641;-76
2021/11/30 07:10:47;;;;;;;17.60;13.33;;;5.20;99.90;;;;;;5111237;28;20674;-76
2021/11/30 07:13:18;;;;;;;16.23;12.67;;;5.20;99.90;;;;;;5101420;28;20350;-76
2021/11/30 07:15:48;;;;;;;14.77;11.77;;;5.20;99.90;;;;;;5130451;27;20621;-76
2021/11/30 07:18:15;;;;;;;16.23;12.53;;;5.30;99.90;;;;;;5132899;27;20291;-76
2021/11/30 07:20:43;;;;;;;16.80;12.93;;;5.30;99.90;;;;;;5122060;27;20775;-76
2021/11/30 07:23:12;;;;;;;15.10;12.57;;;5.30;99.90;;;;;;5111979;28;20201;-76
2021/11/30 07:25:39;;;;;;;17.33;13.13;;;5.40;99.90;;;;;;5111570;28;20225;-76
2021/11/30 07:28:07;;;;;;;16.93;11.80;;;5.40;99.90;;;;;;5111568;28;20200;-76
2021/11/30 07:30:34;;;;;;;17.07;11.73;;;5.50;99.90;;;;;;5111510;28;20277;-76
2021/11/30 07:33:02;;;;;;;17.60;13.03;;;5.40;99.90;;;;;;5114408;27;20231;-76
2021/11/30 07:35:29;;;;;;;15.80;12.03;;;5.40;99.90;;;;;;5111879;28;20646;-76
2021/11/30 07:37:56;;;;;;;17.20;11.87;;;5.40;99.90;;;;;;5112006;28;20698;-76
2021/11/30 07:40:25;;;;;;;15.10;12.33;;;5.50;99.90;;;;;;5112103;28;20319;-76
2021/11/30 07:42:52;;;;;;;15.73;12.23;;;5.40;99.90;;;;;;5112210;28;20675;-76
2021/11/30 07:45:19;;;;;;;16.63;12.53;;;5.60;99.90;;;;;;5111936;28;20282;-76
2021/11/30 07:47:47;;;;;;;16.70;11.90;;;5.70;99.90;;;;;;5111992;28;20230;-76
2021/11/30 07:50:14;;;;;;;17.87;12.83;;;5.50;99.90;;;;;;5111340;28;20289;-76
2021/11/30 07:52:42;;;;;;;16.20;13.30;;;5.40;99.90;;;;;;5112305;28;20293;-78
2021/11/30 07:55:11;;;;;;;19.77;13.50;;;5.50;99.90;;;;;;5111330;28;20227;-76
2021/11/30 07:57:40;;;;;;;17.03;13.23;;;5.60;99.90;;;;;;5111810;28;20293;-76
2021/11/30 08:00:09;;;;;;;18.13;13.40;;;5.50;99.90;;;;;;5121531;28;20277;-77
2021/11/30 08:02:37;;;;;;;16.93;13.33;;;5.50;99.90;;;;;;5120804;28;20736;-77
2021/11/30 08:05:05;;;;;;;18.30;13.97;;;5.60;99.90;;;;;;5111820;28;20219;-77
2021/11/30 08:07:32;;;;;;;19.37;14.00;;;5.60;99.90;;;;;;5113777;27;20253;-76
2021/11/30 08:10:00;;;;;;;20.00;14.17;;;5.70;99.90;;;;;;5124948;27;20733;-76
2021/11/30 08:12:27;;;;;;;18.43;14.10;;;5.80;99.90;;;;;;5117102;27;20616;-76
2021/11/30 08:14:55;;;;;;;19.87;15.03;;;5.70;99.90;;;;;;5124666;27;20250;-76
2021/11/30 08:17:22;;;;;;;22.30;16.30;;;5.80;99.90;;;;;;5116256;28;20194;-77
2021/11/30 08:19:49;;;;;;;21.07;14.53;;;5.70;99.90;;;;;;5115702;28;20786;-76
2021/11/30 08:22:16;;;;;;;19.63;14.00;;;5.80;99.90;;;;;;5115819;27;20234;-77
2021/11/30 08:24:44;;;;;;;20.60;14.10;;;5.90;99.90;;;;;;5115870;28;20240;-77
2021/11/30 08:27:12;;;;;;;22.20;14.10;;;5.90;99.90;;;;;;5115423;27;20282;-77
2021/11/30 08:29:40;;;;;;;17.23;13.90;;;5.90;99.90;;;;;;5116027;28;20254;-76
2021/11/30 08:32:10;;;;;;;19.27;13.80;;;6.10;99.90;;;;;;5115688;28;20208;-77
2021/11/30 08:34:38;;;;;;;22.93;13.93;;;6.10;99.90;;;;;;5115139;28;20305;-77
2021/11/30 08:37:05;;;;;;;18.73;13.37;;;6.00;99.90;;;;;;5123699;27;20193;-77
2021/11/30 08:39:33;;;;;;;19.97;13.83;;;6.00;99.90;;;;;;5115424;28;20292;-76
2021/11/30 08:42:01;;;;;;;19.23;13.00;;;6.10;99.90;;;;;;5116905;27;20199;-76
2021/11/30 08:44:29;;;;;;;18.70;13.40;;;6.20;99.90;;;;;;5115387;28;20663;-76
2021/11/30 08:46:58;;;;;;;16.43;12.00;;;6.20;99.90;;;;;;5118333;27;20225;-78
2021/11/30 08:49:26;;;;;;;17.97;12.60;;;6.20;99.90;;;;;;5114910;28;20201;-77
2021/11/30 08:51:56;;;;;;;15.53;12.43;;;6.30;99.90;;;;;;5114949;28;20200;-77
2021/11/30 08:54:23;;;;;;;17.00;11.67;;;6.40;99.90;;;;;;5114858;27;20281;-76
2021/11/30 08:56:50;;;;;;;19.43;12.67;;;6.30;99.90;;;;;;5096611;28;20663;-77
2021/11/30 08:59:17;;;;;;;17.50;13.03;;;6.50;99.90;;;;;;5115582;27;20290;-76
2021/11/30 09:01:44;;;;;;;17.13;12.30;;;6.50;99.90;;;;;;5113957;27;20649;-76
2021/11/30 09:04:11;;;;;;;16.07;11.50;;;6.40;99.90;;;;;;5116232;27;20631;-76
2021/11/30 09:06:39;;;;;;;15.60;12.23;;;6.50;99.90;;;;;;5112571;27;20279;-78
2021/11/30 09:09:08;;;;;;;18.40;12.70;;;6.60;99.90;;;;;;5095329;28;20293;-77
2021/11/30 09:11:35;;;;;;;19.27;13.23;;;6.70;99.90;;;;;;5103545;28;20239;-78
2021/11/30 09:14:03;;;;;;;19.77;12.77;;;6.70;99.90;;;;;;5104722;27;20300;-77
2021/11/30 09:16:30;;;;;;;16.97;11.50;;;6.80;99.90;;;;;;5115150;27;20219;-78
2021/11/30 09:18:57;;;;;;;14.97;11.07;;;6.90;99.90;;;;;;5112715;28;20295;-78
2021/11/30 09:21:24;;;;;;;14.13;10.10;;;7.00;99.90;;;;;;5075919;28;20199;-78
2021/11/30 09:23:53;;;;;;;12.77;9.90;;;6.90;99.90;;;;;;5073665;28;20245;-78
2021/11/30 09:26:20;;;;;;;13.90;9.90;;;7.10;99.90;;;;;;5072752;28;20230;-78
2021/11/30 09:28:48;;;;;;;14.93;10.80;;;7.00;99.90;;;;;;5073489;28;21000;-78
2021/11/30 09:31:15;;;;;;;15.63;10.20;;;7.20;99.90;;;;;;5073490;28;20233;-78
2021/11/30 09:33:43;;;;;;;13.87;10.43;;;7.10;99.90;;;;;;5074072;28;20227;-78
2021/11/30 09:36:11;;;;;;;16.07;10.23;;;7.30;99.90;;;;;;5072958;28;20298;-77
2021/11/30 09:38:39;;;;;;;14.60;10.57;;;7.30;99.90;;;;;;5073449;28;20226;-78
2021/11/30 09:41:08;;;;;;;15.53;10.53;;;7.30;99.90;;;;;;5073409;28;20738;-78
2021/11/30 09:43:37;;;;;;;15.00;10.67;;;7.50;99.90;;;;;;5074033;28;20231;-78
2021/11/30 09:46:06;;;;;;;16.77;10.00;;;7.30;99.90;;;;;;5072983;28;20195;-78
2021/11/30 09:48:34;;;;;;;14.10;10.20;;;7.40;99.90;;;;;;5072412;28;20203;-78
2021/11/30 09:51:01;;;;;;;14.57;9.60;;;7.50;99.90;;;;;;5082386;28;20285;-78
2021/11/30 09:53:29;;;;;;;16.00;9.63;;;7.50;99.90;;;;;;5078862;28;20618;-78
2021/11/30 09:55:57;;;;;;;12.17;10.27;;;7.60;99.90;;;;;;5068877;28;20566;-78
2021/11/30 09:58:26;;;;;;;12.97;10.13;;;7.80;99.90;;;;;;5073103;28;20623;-78
2021/11/30 10:00:55;;;;;;;11.77;9.53;;;8.00;99.90;;;;;;5072439;28;20658;-78
2021/11/30 10:03:24;;;;;;;12.47;10.17;;;8.20;99.90;;;;;;5072230;28;20222;-78
2021/11/30 10:05:52;;;;;;;13.60;10.57;;;8.10;99.90;;;;;;5073229;28;20656;-78
2021/11/30 10:08:29;;;;;;;12.50;8.73;;;8.30;99.90;;;;;;5073570;28;20199;-78
2021/11/30 10:10:56;;;;;;;13.83;9.17;;;8.20;99.90;;;;;;5077353;28;20194;-78
2021/11/30 10:13:25;;;;;;;15.37;10.17;;;8.00;99.90;;;;;;5069921;28;20199;-77
2021/11/30 10:15:57;;;;;;;12.30;8.50;;;8.10;99.90;;;;;;5072431;28;20603;-78
2021/11/30 10:18:26;;;;;;;11.57;8.90;;;8.00;99.90;;;;;;5072627;28;20203;-78
2021/11/30 10:20:56;;;;;;;13.53;9.60;;;8.10;99.90;;;;;;5104455;28;20265;-78
2021/11/30 10:23:25;;;;;;;13.40;9.47;;;8.00;99.90;;;;;;5098355;27;20210;-78
2021/11/30 10:25:53;;;;;;;13.90;9.30;;;8.10;99.90;;;;;;5116704;27;20280;-78
2021/11/30 10:28:27;;;;;;;12.67;9.67;;;8.10;99.90;;;;;;5113653;28;20626;-78
2021/11/30 10:30:55;;;;;;;13.20;9.27;;;8.20;99.90;;;;;;5099099;28;20542;-78
2021/11/30 10:33:25;;;;;;;13.20;9.07;;;8.30;99.90;;;;;;5125162;27;20231;-78
2021/11/30 10:35:54;;;;;;;14.73;10.10;;;8.40;99.90;;;;;;5121248;27;20311;-79
2021/11/30 10:38:23;;;;;;;11.73;9.40;;;8.70;99.90;;;;;;5117713;27;20198;-79
2021/11/30 10:40:50;;;;;;;13.10;9.30;;;8.80;99.90;;;;;;5107347;27;20195;-79
2021/11/30 10:43:18;;;;;;;14.03;9.60;;;8.90;99.90;;;;;;5113483;27;20216;-79
2021/11/30 10:45:46;;;;;;;11.70;9.57;;;9.10;99.90;;;;;;5109443;27;20283;-79
2021/11/30 10:48:17;;;;;;;13.70;8.97;;;9.20;99.90;;;;;;5112415;28;20253;-79
2021/11/30 10:50:47;;;;;;;13.13;8.60;;;9.30;99.90;;;;;;5105694;27;20235;-79
2021/11/30 10:53:19;;;;;;;12.27;9.87;;;9.20;99.90;;;;;;5095351;28;20190;-79
2021/11/30 10:55:53;;;;;;;11.47;9.17;;;9.60;99.90;;;;;;5108933;27;20221;-79
2021/11/30 10:58:21;;;;;;;11.60;9.30;;;9.50;99.90;;;;;;5111084;27;20228;-79
2021/11/30 11:00:48;;;;;;;10.63;8.07;;;9.40;99.90;;;;;;5112073;28;20244;-79
2021/11/30 11:03:20;;;;;;;12.20;9.33;;;9.50;99.90;;;;;;5112636;28;20237;-79
2021/11/30 11:05:50;;;;;;;13.27;8.50;;;9.40;99.90;;;;;;5101165;28;20545;-79
2021/11/30 11:08:19;;;;;;;9.37;7.80;;;9.40;99.90;;;;;;5114041;27;20200;-79
2021/11/30 11:10:49;;;;;;;14.10;8.80;;;9.40;99.90;;;;;;5117637;27;20231;-79
2021/11/30 11:13:26;;;;;;;12.03;8.80;;;9.50;99.90;;;;;;5116741;27;20310;-79
2021/11/30 11:15:54;;;;;;;10.03;7.80;;;9.70;99.90;;;;;;5110949;27;20239;-79
2021/11/30 11:18:26;;;;;;;9.93;7.47;;;9.90;99.90;;;;;;5112067;28;20277;-79
2021/11/30 11:21:08;;;;;;;12.90;7.30;;;10.00;99.90;;;;;;5096025;28;20269;-79
2021/11/30 11:23:36;;;;;;;10.67;7.00;;;10.20;99.90;;;;;;5110962;28;20193;-79
2021/11/30 11:26:16;;;;;;;11.60;7.30;;;10.30;99.90;;;;;;5117778;27;20297;-79
2021/11/30 11:28:43;;;;;;;8.23;5.47;;;10.40;99.90;;;;;;5112494;27;20285;-79
2021/11/30 11:31:10;;;;;;;11.67;6.40;;;10.40;99.90;;;;;;5111915;28;20321;-79
2021/11/30 11:33:38;;;;;;;9.07;5.40;;;10.50;99.90;;;;;;5112330;28;20284;-79
2021/11/30 11:36:05;;;;;;;10.40;5.60;;;10.60;99.90;;;;;;5111747;28;20230;-79
2021/11/30 11:38:33;;;;;;;8.83;4.97;;;10.80;99.90;;;;;;5112504;28;20292;-79
2021/11/30 11:41:00;;;;;;;6.70;4.87;;;11.10;99.90;;;;;;5112631;28;20229;-79
2021/11/30 11:43:27;;;;;;;6.67;4.30;;;11.20;99.90;;;;;;5119020;28;20292;-79
2021/11/30 11:45:55;;;;;;;6.93;4.30;;;11.30;99.90;;;;;;5127834;27;20664;-79
2021/11/30 11:48:27;;;;;;;7.73;4.90;;;11.30;99.90;;;;;;5131256;27;20285;-79
2021/11/30 11:50:58;;;;;;;6.87;4.63;;;11.40;99.90;;;;;;5119016;28;20228;-79
2021/11/30 11:53:28;;;;;;;7.40;5.00;;;11.50;99.90;;;;;;5118554;27;20202;-79
2021/11/30 11:56:15;;;;;;;10.67;5.53;;;11.80;99.90;;;;;;5118574;27;20299;-79
2021/11/30 11:58:44;;;;;;;6.30;4.90;;;12.50;99.90;;;;;;5121146;27;20232;-79
2021/11/30 12:01:15;;;;;;;7.10;5.60;;;13.00;99.90;;;;;;5112368;27;20289;-79
2021/11/30 12:04:03;;;;;;;7.90;4.80;;;12.80;99.90;;;;;;5119261;27;20626;-80
2021/11/30 12:06:33;;;;;;;5.57;4.87;;;12.30;99.90;;;;;;5118917;28;20202;-79
2021/11/30 12:09:20;;;;;;;7.07;4.73;;;12.10;99.90;;;;;;5117218;28;20732;-79
2021/11/30 12:11:49;;;;;;;6.20;4.23;;;11.70;99.90;;;;;;5105847;28;20661;-79
2021/11/30 12:14:22;;;;;;;7.33;5.70;;;11.60;99.90;;;;;;5118623;28;20256;-79
2021/11/30 12:17:16;;;;;;;8.33;4.80;;;11.50;99.90;;;;;;5118352;28;20221;-79
2021/11/30 12:19:51;;;;;;;7.57;5.40;;;11.50;99.90;;;;;;5118416;27;20635;-79
2021/11/30 12:22:46;;;;;;;6.17;5.03;;;11.60;99.90;;;;;;5117843;28;20232;-78
2021/11/30 12:25:36;;;;;;;7.73;5.63;;;11.50;99.90;;;;;;5112062;27;20213;-79
2021/11/30 12:28:09;;;;;;;6.63;5.33;;;11.70;99.90;;;;;;5108892;28;20202;-79
2021/11/30 12:30:42;;;;;;;8.33;5.47;;;11.60;99.90;;;;;;5118395;27;20229;-79
2021/11/30 12:33:19;;;;;;;7.00;5.47;;;11.70;99.90;;;;;;5118605;28;20237;-80
2021/11/30 12:35:53;;;;;;;7.60;4.93;;;11.70;99.90;;;;;;5118266;28;20201;-79
2021/11/30 12:38:27;;;;;;;6.60;5.07;;;11.60;99.90;;;;;;5118221;28;20660;-79
2021/11/30 12:40:55;;;;;;;7.10;5.03;;;11.60;99.90;;;;;;5117777;27;20196;-79
2021/11/30 12:43:28;;;;;;;6.47;4.50;;;11.50;99.90;;;;;;5117875;27;20648;-79
2021/11/30 12:45:56;;;;;;;6.97;5.10;;;11.50;99.90;;;;;;5118418;27;20216;-79
2021/11/30 12:48:26;;;;;;;6.63;4.83;;;12.00;99.90;;;;;;5117905;28;20577;-80
2021/11/30 12:51:15;;;;;;;10.70;5.10;;;12.20;99.90;;;;;;5117889;28;20229;-79
2021/11/30 12:53:44;;;;;;;6.93;4.87;;;12.20;99.90;;;;;;5113827;28;20560;-79
2021/11/30 12:56:12;;;;;;;7.70;4.90;;;12.00;99.90;;;;;;5114407;27;20672;-79